createdAt,value
2022-08-12T00:01:05.580Z,99.90
2022-08-12T00:02:56.680Z,99.90
2022-08-12T00:04:47.741Z,99.90
2022-08-12T00:06:39.974Z,99.90
2022-08-12T00:08:35.792Z,99.90
2022-08-12T00:10:28.247Z,99.90
2022-08-12T00:12:19.845Z,99.90
2022-08-12T00:14:10.704Z,99.90
2022-08-12T00:16:04.487Z,99.90
2022-08-12T00:17:55.625Z,99.90
2022-08-12T00:19:46.559Z,99.90
2022-08-12T00:21:39.136Z,99.90
2022-08-12T00:23:31.607Z,1.00
2022-08-12T00:26:05.483Z,1.00
2022-08-12T00:27:43.939Z,1.00
2022-08-12T00:29:35.488Z,1.00
2022-08-12T00:31:26.606Z,1.00
2022-08-12T00:33:17.541Z,1.00
2022-08-12T00:35:08.908Z,1.00
2022-08-12T00:37:13.343Z,1.00
2022-08-12T00:39:05.105Z,1.00
2022-08-12T00:40:58.698Z,1.00
2022-08-12T00:42:31.154Z,1.00
2022-08-12T00:44:06.287Z,1.00
2022-08-12T00:45:58.419Z,1.00
2022-08-12T00:47:34.276Z,1.00
2022-08-12T00:49:07.956Z,1.00
2022-08-12T00:50:42.893Z,1.00
2022-08-12T00:52:16.541Z,1.00
2022-08-12T00:53:48.744Z,1.00
2022-08-12T00:55:21.473Z,1.00
2022-08-12T00:57:02.599Z,1.00
2022-08-12T00:58:35.251Z,1.00
2022-08-12T01:00:14.816Z,1.00
2022-08-12T01:02:11.447Z,1.00
2022-08-12T01:03:59.678Z,1.00
2022-08-12T01:05:51.858Z,1.00
2022-08-12T01:07:46.278Z,52.70
2022-08-12T01:09:39.272Z,99.90
2022-08-12T01:11:29.303Z,99.90
2022-08-12T01:13:18.699Z,99.90
2022-08-12T01:14:54.469Z,99.90
2022-08-12T01:16:27.640Z,99.90
2022-08-12T01:18:00.075Z,99.90
2022-08-12T01:19:34.552Z,99.90
2022-08-12T01:21:09.397Z,99.90
2022-08-12T01:23:07.478Z,99.90
2022-08-12T01:25:06.993Z,99.90
2022-08-12T01:26:43.605Z,99.90
2022-08-12T01:28:20.347Z,99.90
2022-08-12T01:29:56.960Z,99.90
2022-08-12T01:31:30.646Z,99.90
2022-08-12T01:33:05.953Z,1.00
2022-08-12T01:34:40.077Z,1.00
2022-08-12T01:36:17.385Z,1.00
2022-08-12T01:38:04.395Z,1.00
2022-08-12T01:40:35.696Z,1.00
2022-08-12T01:41:53.942Z,1.00
2022-08-12T01:43:27.427Z,1.00
2022-08-12T01:45:01.939Z,1.00
2022-08-12T01:47:23.983Z,99.90
2022-08-12T01:49:02.427Z,99.90
2022-08-12T01:52:04.523Z,99.90
2022-08-12T01:53:17.817Z,99.90
2022-08-12T01:54:52.260Z,99.90
2022-08-12T01:56:30.092Z,1.00
2022-08-12T01:58:55.328Z,1.00
2022-08-12T02:00:54.697Z,1.00
2022-08-12T02:02:30.574Z,1.00
2022-08-12T02:04:50.491Z,1.00
2022-08-12T02:07:07.023Z,1.00
2022-08-12T02:09:18.783Z,1.00
2022-08-12T02:11:24.523Z,70.10
2022-08-12T02:13:49.038Z,17.30
2022-08-12T02:15:33.346Z,99.90
2022-08-12T02:17:55.598Z,99.90
2022-08-12T02:20:17.796Z,99.90
2022-08-12T02:22:11.584Z,99.90
2022-08-12T02:23:43.858Z,1.00
2022-08-12T02:25:38.109Z,1.00
2022-08-12T02:27:15.156Z,99.90
2022-08-12T02:28:48.780Z,99.90
2022-08-12T02:30:25.935Z,99.90
2022-08-12T02:32:11.449Z,99.90
2022-08-12T02:33:46.216Z,1.00
2022-08-12T02:35:25.339Z,1.00
2022-08-12T02:37:02.682Z,99.90
2022-08-12T02:38:37.893Z,99.90
2022-08-12T02:40:13.566Z,1.00
2022-08-12T02:41:48.787Z,1.00
2022-08-12T02:43:51.937Z,1.00
2022-08-12T02:45:46.347Z,99.90
2022-08-12T02:47:59.131Z,1.00
2022-08-12T02:49:25.570Z,1.00
2022-08-12T02:51:06.032Z,99.90
2022-08-12T02:52:38.974Z,99.90
2022-08-12T02:54:11.946Z,99.90
2022-08-12T02:55:45.743Z,99.90
2022-08-12T02:57:20.060Z,99.90
2022-08-12T02:58:53.740Z,99.90
2022-08-12T03:00:26.585Z,99.90
2022-08-12T03:02:03.729Z,20.90
2022-08-12T03:03:38.585Z,1.00
2022-08-12T03:05:17.671Z,29.10
2022-08-12T03:07:09.844Z,1.00
2022-08-12T03:08:43.502Z,1.00
2022-08-12T03:10:36.656Z,1.00
2022-08-12T03:12:16.278Z,99.90
2022-08-12T03:13:58.181Z,99.90
2022-08-12T03:15:31.325Z,99.90
2022-08-12T03:17:25.947Z,1.00
2022-08-12T03:18:58.784Z,1.00
2022-08-12T03:20:38.174Z,1.00
2022-08-12T03:22:14.707Z,99.90
2022-08-12T03:23:48.583Z,1.00
2022-08-12T03:25:27.369Z,99.90
2022-08-12T03:27:03.241Z,99.90
2022-08-12T03:28:51.943Z,99.90
2022-08-12T03:30:32.316Z,99.90
2022-08-12T03:32:06.111Z,99.90
2022-08-12T03:33:43.843Z,99.90
2022-08-12T03:35:41.153Z,99.90
2022-08-12T03:37:15.644Z,99.90
2022-08-12T03:39:10.980Z,99.90
2022-08-12T03:41:24.214Z,1.00
2022-08-12T03:43:16.200Z,1.00
2022-08-12T03:45:52.053Z,1.00
2022-08-12T03:47:52.489Z,99.90
2022-08-12T03:49:43.892Z,99.90
2022-08-12T03:51:34.599Z,1.00
2022-08-12T03:53:27.243Z,1.00
2022-08-12T03:55:17.863Z,47.60
2022-08-12T03:57:08.558Z,1.00
2022-08-12T03:58:59.924Z,56.20
2022-08-12T04:00:36.545Z,1.00
2022-08-12T04:02:16.479Z,99.90
2022-08-12T04:03:53.498Z,99.90
2022-08-12T04:05:55.736Z,55.20
2022-08-12T04:07:19.033Z,1.00
2022-08-12T04:08:56.956Z,1.00
2022-08-12T04:10:50.540Z,1.00
2022-08-12T04:12:46.155Z,1.00
2022-08-12T04:14:20.727Z,1.00
2022-08-12T04:15:54.118Z,1.00
2022-08-12T04:17:28.032Z,1.00
2022-08-12T04:19:01.832Z,1.00
2022-08-12T04:20:34.671Z,1.00
2022-08-12T04:22:06.820Z,1.00
2022-08-12T04:23:47.660Z,1.00
2022-08-12T04:25:24.356Z,1.00
2022-08-12T04:26:56.873Z,1.00
2022-08-12T04:28:29.068Z,1.00
2022-08-12T04:30:30.138Z,1.00
2022-08-12T04:31:55.973Z,1.00
2022-08-12T04:33:28.575Z,1.00
2022-08-12T04:35:01.246Z,1.00
2022-08-12T04:36:35.597Z,1.00
2022-08-12T04:38:08.068Z,1.00
2022-08-12T04:39:40.725Z,1.00
2022-08-12T04:41:13.247Z,1.00
2022-08-12T04:42:45.730Z,1.00
2022-08-12T04:44:18.451Z,1.00
2022-08-12T04:45:51.751Z,1.00
2022-08-12T04:47:24.625Z,1.00
2022-08-12T04:48:57.531Z,1.00
2022-08-12T04:50:35.733Z,1.00
2022-08-12T04:52:09.996Z,1.00
2022-08-12T04:53:42.766Z,1.00
2022-08-12T04:55:17.148Z,1.00
2022-08-12T04:57:04.685Z,1.00
2022-08-12T04:58:38.839Z,1.00
2022-08-12T05:00:14.084Z,1.00
2022-08-12T05:01:53.604Z,1.00
2022-08-12T05:03:27.778Z,1.00
2022-08-12T05:05:02.896Z,1.00
2022-08-12T05:06:35.051Z,1.00
2022-08-12T05:08:17.029Z,1.00
2022-08-12T05:10:01.999Z,1.00
2022-08-12T05:11:36.723Z,1.00
2022-08-12T05:13:14.444Z,1.00
2022-08-12T05:14:46.915Z,1.00
2022-08-12T05:16:19.166Z,1.00
2022-08-12T05:18:19.663Z,1.00
2022-08-12T05:19:52.575Z,1.00
2022-08-12T05:21:29.474Z,1.00
2022-08-12T05:23:13.862Z,1.00
2022-08-12T05:24:47.698Z,1.00
2022-08-12T05:26:20.346Z,1.00
2022-08-12T05:27:57.814Z,1.00
2022-08-12T05:30:07.678Z,1.00
2022-08-12T05:31:47.440Z,1.00
2022-08-12T05:33:16.004Z,1.00
2022-08-12T05:34:49.168Z,1.00
2022-08-12T05:36:21.307Z,1.00
2022-08-12T05:38:13.727Z,1.00
2022-08-12T05:39:45.946Z,1.00
2022-08-12T05:41:21.185Z,1.00
2022-08-12T05:42:53.315Z,1.00
2022-08-12T05:44:25.749Z,1.00
2022-08-12T05:45:58.428Z,1.00
2022-08-12T05:47:53.076Z,1.00
2022-08-12T05:49:23.285Z,1.00
2022-08-12T05:50:56.740Z,1.00
2022-08-12T05:52:28.897Z,1.00
2022-08-12T05:54:01.104Z,1.00
2022-08-12T05:55:37.476Z,1.00
2022-08-12T05:57:11.608Z,1.00
2022-08-12T05:58:43.794Z,1.00
2022-08-12T06:00:21.845Z,1.00
2022-08-12T06:02:11.982Z,1.00
2022-08-12T06:03:45.983Z,1.00
2022-08-12T06:05:18.220Z,1.00
2022-08-12T06:06:53.392Z,1.00
2022-08-12T06:08:26.118Z,1.00
2022-08-12T06:09:58.447Z,1.00
2022-08-12T06:11:30.622Z,1.00
2022-08-12T06:13:05.557Z,1.00
2022-08-12T06:14:39.347Z,1.00
2022-08-12T06:16:20.867Z,1.00
2022-08-12T06:17:53.601Z,1.00
2022-08-12T06:19:25.819Z,1.00
2022-08-12T06:21:23.711Z,1.00
2022-08-12T06:22:55.961Z,1.00
2022-08-12T06:24:29.377Z,1.00
2022-08-12T06:26:02.233Z,1.00
2022-08-12T06:28:07.333Z,1.00
2022-08-12T06:30:07.959Z,1.00
2022-08-12T06:31:34.672Z,1.00
2022-08-12T06:33:21.984Z,1.00
2022-08-12T06:35:23.375Z,1.00
2022-08-12T06:36:48.763Z,1.00
2022-08-12T06:38:25.298Z,1.00
2022-08-12T06:40:01.638Z,1.00
2022-08-12T06:42:05.118Z,1.00
2022-08-12T06:44:05.915Z,1.00
2022-08-12T06:45:46.897Z,1.00
2022-08-12T06:47:19.783Z,1.00
2022-08-12T06:48:58.786Z,1.00
2022-08-12T06:50:31.199Z,1.00
2022-08-12T06:52:07.452Z,1.00
2022-08-12T06:53:39.761Z,1.00
2022-08-12T06:55:20.621Z,1.00
2022-08-12T06:58:06.943Z,1.00
2022-08-12T06:58:45.349Z,1.00
2022-08-12T07:00:32.462Z,1.00
2022-08-12T07:02:05.404Z,1.00
2022-08-12T07:03:38.402Z,1.00
2022-08-12T07:05:10.559Z,1.00
2022-08-12T07:06:44.813Z,1.00
2022-08-12T07:08:17.084Z,1.00
2022-08-12T07:10:00.008Z,1.00
2022-08-12T07:11:44.647Z,1.00
2022-08-12T07:13:25.147Z,1.00
2022-08-12T07:15:01.845Z,1.00
2022-08-12T07:16:52.481Z,1.00
2022-08-12T07:18:32.732Z,1.00
2022-08-12T07:20:29.661Z,1.00
2022-08-12T07:22:06.469Z,1.00
2022-08-12T07:23:41.847Z,1.00
2022-08-12T07:25:37.540Z,1.00
2022-08-12T07:27:13.386Z,1.00
2022-08-12T07:28:48.105Z,1.00
2022-08-12T07:30:20.325Z,1.00
2022-08-12T07:31:52.993Z,1.00
2022-08-12T07:33:29.183Z,1.00
2022-08-12T07:35:02.228Z,1.00
2022-08-12T07:36:35.392Z,1.00
2022-08-12T07:38:31.443Z,1.00
2022-08-12T07:40:04.651Z,1.00
2022-08-12T07:41:36.881Z,1.00
2022-08-12T07:43:09.119Z,1.00
2022-08-12T07:44:41.293Z,1.00
2022-08-12T07:46:20.546Z,1.00
2022-08-12T07:47:52.789Z,1.00
2022-08-12T07:49:28.071Z,1.00
2022-08-12T07:51:00.362Z,1.00
2022-08-12T07:52:42.155Z,1.00
2022-08-12T07:54:14.533Z,1.00
2022-08-12T07:55:47.838Z,1.00
2022-08-12T07:57:20.955Z,1.00
2022-08-12T07:58:54.338Z,1.00
2022-08-12T08:00:36.244Z,1.00
2022-08-12T08:02:09.998Z,1.00
2022-08-12T08:04:03.788Z,1.00
2022-08-12T08:05:39.209Z,1.00
2022-08-12T08:07:11.435Z,1.00
2022-08-12T08:08:43.576Z,1.00
2022-08-12T08:10:16.678Z,1.00
2022-08-12T08:12:08.347Z,1.00
2022-08-12T08:13:41.005Z,1.00
2022-08-12T08:15:15.091Z,1.00
2022-08-12T08:16:50.897Z,1.00
2022-08-12T08:18:26.813Z,1.00
2022-08-12T08:20:02.662Z,1.00
2022-08-12T08:21:36.807Z,1.00
2022-08-12T08:23:18.493Z,1.00
2022-08-12T08:24:57.640Z,1.00
2022-08-12T08:26:29.781Z,1.00
2022-08-12T08:28:11.245Z,1.00
2022-08-12T08:29:45.467Z,1.00
2022-08-12T08:31:18.738Z,1.00
2022-08-12T08:32:50.945Z,1.00
2022-08-12T08:34:49.149Z,1.00
2022-08-12T08:36:24.221Z,1.00
2022-08-12T08:38:12.826Z,1.00
2022-08-12T08:39:45.033Z,1.00
2022-08-12T08:42:16.363Z,1.00
2022-08-12T08:43:44.338Z,1.00
2022-08-12T08:45:17.720Z,1.00
2022-08-12T08:46:50.716Z,1.00
2022-08-12T08:48:24.543Z,1.00
2022-08-12T08:50:01.099Z,1.00
2022-08-12T08:51:33.841Z,1.00
2022-08-12T08:53:08.786Z,1.00
2022-08-12T08:54:41.094Z,1.00
2022-08-12T08:56:13.467Z,1.00
2022-08-12T08:57:51.716Z,1.00
2022-08-12T08:59:24.019Z,1.00
2022-08-12T09:00:56.480Z,1.00
2022-08-12T09:02:29.063Z,1.00
2022-08-12T09:05:12.942Z,1.00
2022-08-12T09:06:02.866Z,1.00
2022-08-12T09:07:51.438Z,1.00
2022-08-12T09:09:34.108Z,1.00
2022-08-12T09:12:10.957Z,1.00
2022-08-12T09:14:10.891Z,1.00
2022-08-12T09:15:35.480Z,1.00
2022-08-12T09:17:09.016Z,1.00
2022-08-12T09:18:43.553Z,1.00
2022-08-12T09:20:16.520Z,1.00
2022-08-12T09:21:54.501Z,1.00
2022-08-12T09:25:25.824Z,1.00
2022-08-12T09:26:58.849Z,1.00
2022-08-12T09:28:32.988Z,1.00
2022-08-12T09:30:11.093Z,1.00
2022-08-12T09:32:07.436Z,1.00
2022-08-12T09:34:26.772Z,1.00
2022-08-12T09:35:42.863Z,1.00
2022-08-12T09:37:19.219Z,1.00
2022-08-12T09:38:59.076Z,1.00
2022-08-12T09:41:01.798Z,1.00
2022-08-12T09:42:57.787Z,1.00
2022-08-12T09:45:17.760Z,1.00
2022-08-12T09:46:48.427Z,1.00
2022-08-12T09:48:22.002Z,1.00
2022-08-12T09:49:58.614Z,1.00
2022-08-12T09:51:37.976Z,1.00
2022-08-12T09:53:36.271Z,1.00
2022-08-12T09:56:06.553Z,1.00
2022-08-12T09:58:45.162Z,1.00
2022-08-12T09:59:06.873Z,1.00
2022-08-12T10:00:51.700Z,1.00
2022-08-12T10:02:43.866Z,1.00
2022-08-12T10:04:19.727Z,1.00
2022-08-12T10:06:19.191Z,1.00
2022-08-12T10:07:45.918Z,1.00
2022-08-12T10:09:18.065Z,1.00
2022-08-12T10:11:18.383Z,1.00
2022-08-12T10:13:35.216Z,1.00
2022-08-12T10:15:15.310Z,1.00
2022-08-12T10:17:03.357Z,1.00
2022-08-12T10:19:01.497Z,1.00
2022-08-12T10:20:33.669Z,1.00
2022-08-12T10:22:17.057Z,1.00
2022-08-12T10:23:51.675Z,1.00
2022-08-12T10:26:35.644Z,1.00
2022-08-12T10:28:04.465Z,1.00
2022-08-12T10:30:03.098Z,1.00
2022-08-12T10:32:19.470Z,1.00
2022-08-12T10:33:31.524Z,1.00
2022-08-12T10:35:04.621Z,1.00
2022-08-12T10:36:43.106Z,1.00
2022-08-12T10:38:39.320Z,1.00
2022-08-12T10:40:15.621Z,1.00
2022-08-12T10:42:11.671Z,1.00
2022-08-12T10:43:54.877Z,1.00
2022-08-12T10:45:31.199Z,1.00
2022-08-12T10:47:26.363Z,1.00
2022-08-12T10:49:05.682Z,1.00
2022-08-12T10:51:02.451Z,1.00
2022-08-12T10:52:41.359Z,1.00
2022-08-12T10:54:14.271Z,1.00
2022-08-12T10:55:48.017Z,1.00
2022-08-12T10:58:12.896Z,1.00
2022-08-12T11:00:29.169Z,1.00
2022-08-12T11:03:02.264Z,1.00
2022-08-12T11:04:27.576Z,1.00
2022-08-12T11:07:05.150Z,1.00
2022-08-12T11:07:08.936Z,1.00
2022-08-12T11:08:47.295Z,1.00
2022-08-12T11:10:19.723Z,1.00
2022-08-12T11:12:35.748Z,1.00
2022-08-12T11:13:59.837Z,1.00
2022-08-12T11:16:03.760Z,1.00
2022-08-12T11:17:43.710Z,1.00
2022-08-12T11:19:22.431Z,1.00
2022-08-12T11:20:57.893Z,1.00
2022-08-12T11:22:30.517Z,1.00
2022-08-12T11:24:05.553Z,1.00
2022-08-12T11:25:56.101Z,1.00
2022-08-12T11:27:30.259Z,1.00
2022-08-12T11:29:06.021Z,1.00
2022-08-12T11:30:54.931Z,1.00
2022-08-12T11:32:27.235Z,1.00
2022-08-12T11:34:06.320Z,1.00
2022-08-12T11:35:56.257Z,1.00
2022-08-12T11:37:58.411Z,1.00
2022-08-12T11:41:28.162Z,1.00
2022-08-12T11:43:18.855Z,1.00
2022-08-12T11:44:52.352Z,1.00
2022-08-12T11:46:24.528Z,1.00
2022-08-12T11:47:59.532Z,1.00
2022-08-12T11:49:32.856Z,1.00
2022-08-12T11:51:09.238Z,1.00
2022-08-12T11:53:59.323Z,1.00
2022-08-12T11:54:34.943Z,1.00
2022-08-12T11:56:08.068Z,1.00
2022-08-12T11:58:19.710Z,1.00
2022-08-12T12:02:04.555Z,1.00
2022-08-12T12:03:44.012Z,1.00
2022-08-12T12:05:19.899Z,1.00
2022-08-12T12:06:54.239Z,1.00
2022-08-12T12:08:38.164Z,1.00
2022-08-12T12:10:19.309Z,1.00
2022-08-12T12:11:51.676Z,1.00
2022-08-12T12:14:05.659Z,1.00
2022-08-12T12:15:24.868Z,1.00
2022-08-12T12:16:57.912Z,1.00
2022-08-12T12:18:32.543Z,1.00
2022-08-12T12:20:09.631Z,1.00
2022-08-12T12:21:47.047Z,1.00
2022-08-12T12:23:28.977Z,1.00
2022-08-12T12:25:12.651Z,1.00
2022-08-12T12:26:46.018Z,1.00
2022-08-12T12:28:37.509Z,1.00
2022-08-12T12:30:19.885Z,1.00
2022-08-12T12:32:10.126Z,1.00
2022-08-12T12:33:46.152Z,1.00
2022-08-12T12:36:18.385Z,1.00
2022-08-12T12:37:58.936Z,1.00
2022-08-12T12:39:15.365Z,1.00
2022-08-12T12:40:50.738Z,1.00
2022-08-12T12:42:49.784Z,1.00
2022-08-12T12:44:25.886Z,1.00
2022-08-12T12:46:02.748Z,1.00
2022-08-12T12:47:34.871Z,1.00
2022-08-12T12:49:10.906Z,1.00
2022-08-12T12:51:09.235Z,1.00
2022-08-12T12:52:42.719Z,1.00
2022-08-12T12:54:16.249Z,1.00
2022-08-12T12:55:51.039Z,1.00
2022-08-12T12:57:36.245Z,1.00
2022-08-12T12:59:35.000Z,1.00
2022-08-12T13:01:27.866Z,1.00
2022-08-12T13:03:03.177Z,1.00
2022-08-12T13:04:37.186Z,1.00
2022-08-12T13:06:09.792Z,1.00
2022-08-12T13:07:54.263Z,1.00
2022-08-12T13:09:27.378Z,1.00
2022-08-12T13:11:09.171Z,1.00
2022-08-12T13:12:42.618Z,1.00
2022-08-12T13:14:28.833Z,1.00
2022-08-12T13:16:02.904Z,1.00
2022-08-12T13:18:02.019Z,1.00
2022-08-12T13:19:37.722Z,1.00
2022-08-12T13:21:33.572Z,1.00
2022-08-12T13:23:37.038Z,1.00
2022-08-12T13:25:01.684Z,1.00
2022-08-12T13:26:35.169Z,1.00
2022-08-12T13:28:22.079Z,1.00
2022-08-12T13:30:03.823Z,1.00
2022-08-12T13:31:40.260Z,1.00
2022-08-12T13:34:33.656Z,1.00
2022-08-12T13:36:02.749Z,1.00
2022-08-12T13:37:17.678Z,1.00
2022-08-12T13:38:52.314Z,1.00
2022-08-12T13:40:39.968Z,1.00
2022-08-12T13:42:14.862Z,1.00
2022-08-12T13:43:47.095Z,1.00
2022-08-12T13:45:20.535Z,1.00
2022-08-12T13:46:58.973Z,1.00
2022-08-12T13:48:32.943Z,1.00
2022-08-12T13:50:06.575Z,1.00
2022-08-12T13:51:42.690Z,1.00
2022-08-12T13:53:24.338Z,1.00
2022-08-12T13:55:06.256Z,1.00
2022-08-12T13:56:39.048Z,1.00
2022-08-12T13:58:16.951Z,1.00
2022-08-12T13:59:55.440Z,1.00
2022-08-12T14:01:33.329Z,1.00
2022-08-12T14:03:06.253Z,1.00
2022-08-12T14:04:40.500Z,1.00
2022-08-12T14:06:15.506Z,1.00
2022-08-12T14:07:57.935Z,1.00
2022-08-12T14:09:56.997Z,1.00
2022-08-12T14:11:32.326Z,1.00
2022-08-12T14:14:02.537Z,1.00
2022-08-12T14:15:09.080Z,1.00
2022-08-12T14:16:48.774Z,1.00
2022-08-12T14:18:32.995Z,1.00
2022-08-12T14:20:15.408Z,1.00
2022-08-12T14:21:59.354Z,1.00
2022-08-12T14:24:05.685Z,1.00
2022-08-12T14:25:28.752Z,1.00
2022-08-12T14:27:08.764Z,1.00
2022-08-12T14:28:45.156Z,1.00
2022-08-12T14:30:30.455Z,1.00
2022-08-12T14:32:02.736Z,1.00
2022-08-12T14:33:49.023Z,1.00
2022-08-12T14:35:21.590Z,1.00
2022-08-12T14:36:57.721Z,1.00
2022-08-12T14:38:39.446Z,1.00
2022-08-12T14:40:18.248Z,1.00
2022-08-12T14:41:57.382Z,1.00
2022-08-12T14:43:44.372Z,1.00
2022-08-12T14:45:45.255Z,1.00
2022-08-12T14:47:19.815Z,1.00
2022-08-12T14:48:54.044Z,1.00
2022-08-12T14:50:57.406Z,1.00
2022-08-12T14:53:03.384Z,1.00
2022-08-12T14:56:58.812Z,1.00
2022-08-12T14:57:58.399Z,1.00
2022-08-12T14:59:58.201Z,1.00
2022-08-12T15:01:42.348Z,1.00
2022-08-12T15:03:15.499Z,1.00
2022-08-12T15:05:03.531Z,1.00
2022-08-12T15:06:44.580Z,1.00
2022-08-12T15:08:43.803Z,1.00
2022-08-12T15:10:32.372Z,1.00
2022-08-12T15:12:14.574Z,1.00
2022-08-12T15:13:49.383Z,1.00
2022-08-12T15:15:22.613Z,1.00
2022-08-12T15:16:54.847Z,1.00
2022-08-12T15:18:29.080Z,1.00
2022-08-12T15:20:31.222Z,1.00
2022-08-12T15:22:37.331Z,1.00
2022-08-12T15:23:55.585Z,1.00
2022-08-12T15:25:39.887Z,1.00
2022-08-12T15:27:12.562Z,1.00
2022-08-12T15:28:54.075Z,1.00
2022-08-12T15:30:30.517Z,1.00
2022-08-12T15:32:07.674Z,1.00
2022-08-12T15:33:50.093Z,1.00
2022-08-12T15:35:31.361Z,1.00
2022-08-12T15:38:08.729Z,1.00
2022-08-12T15:39:18.786Z,1.00
2022-08-12T15:40:53.422Z,1.00
2022-08-12T15:42:26.446Z,1.00
2022-08-12T15:44:37.373Z,1.00
2022-08-12T15:45:50.804Z,1.00
2022-08-12T15:47:48.279Z,1.00
2022-08-12T15:49:22.436Z,1.00
2022-08-12T15:50:55.572Z,1.00
2022-08-12T15:52:30.367Z,1.00
2022-08-12T15:54:05.408Z,1.00
2022-08-12T15:56:00.830Z,1.00
2022-08-12T15:57:34.122Z,1.00
2022-08-12T15:59:06.892Z,1.00
2022-08-12T16:00:41.108Z,1.00
2022-08-12T16:02:18.481Z,1.00
2022-08-12T16:04:00.274Z,1.00
2022-08-12T16:06:15.606Z,1.00
2022-08-12T16:07:39.564Z,1.00
2022-08-12T16:09:11.941Z,1.00
2022-08-12T16:10:45.724Z,1.00
2022-08-12T16:12:22.139Z,1.00
2022-08-12T16:13:54.556Z,1.00
2022-08-12T16:15:29.582Z,1.00
2022-08-12T16:17:09.095Z,1.00
2022-08-12T16:18:47.103Z,1.00
2022-08-12T16:20:33.115Z,1.00
2022-08-12T16:22:07.159Z,1.00
2022-08-12T16:23:55.335Z,1.00
2022-08-12T16:26:03.334Z,1.00
2022-08-12T16:27:27.844Z,1.00
2022-08-12T16:29:15.705Z,1.00
2022-08-12T16:30:49.957Z,1.00
2022-08-12T16:32:24.615Z,1.00
2022-08-12T16:34:04.356Z,1.00
2022-08-12T16:35:47.536Z,1.00
2022-08-12T16:37:22.208Z,1.00
2022-08-12T16:39:05.374Z,1.00
2022-08-12T16:40:46.239Z,1.00
2022-08-12T16:42:28.141Z,1.00
2022-08-12T16:44:01.104Z,1.00
2022-08-12T16:46:07.783Z,1.00
2022-08-12T16:47:58.846Z,1.00
2022-08-12T16:49:25.178Z,1.00
2022-08-12T16:51:01.942Z,1.00
2022-08-12T16:52:35.296Z,1.00
2022-08-12T16:54:14.087Z,1.00
2022-08-12T16:55:50.658Z,1.00
2022-08-12T16:57:34.682Z,1.00
2022-08-12T16:59:16.112Z,1.00
2022-08-12T17:00:51.946Z,1.00
2022-08-12T17:02:33.418Z,1.00
2022-08-12T17:04:09.483Z,1.00
2022-08-12T17:05:43.517Z,1.00
2022-08-12T17:07:19.523Z,1.00
2022-08-12T17:08:55.715Z,1.00
2022-08-12T17:10:36.501Z,1.00
2022-08-12T17:12:09.535Z,1.00
2022-08-12T17:13:41.712Z,1.00
2022-08-12T17:15:57.555Z,1.00
2022-08-12T17:17:26.393Z,1.00
2022-08-12T17:19:11.468Z,1.00
2022-08-12T17:20:47.432Z,1.00
2022-08-12T17:22:22.013Z,1.00
2022-08-12T17:23:55.407Z,1.00
2022-08-12T17:25:30.115Z,1.00
2022-08-12T17:27:15.740Z,1.00
2022-08-12T17:28:52.406Z,1.00
2022-08-12T17:30:27.572Z,1.00
2022-08-12T17:32:05.387Z,1.00
2022-08-12T17:33:43.289Z,1.00
2022-08-12T17:35:37.389Z,1.00
2022-08-12T17:37:16.709Z,1.00
2022-08-12T17:38:50.736Z,1.00
2022-08-12T17:40:36.293Z,1.00
2022-08-12T17:42:34.504Z,1.00
2022-08-12T17:44:03.196Z,1.00
2022-08-12T17:45:42.249Z,1.00
2022-08-12T17:47:31.080Z,1.00
2022-08-12T17:49:19.330Z,1.00
2022-08-12T17:51:15.750Z,1.00
2022-08-12T17:52:50.231Z,1.00
2022-08-12T17:54:23.691Z,1.00
2022-08-12T17:55:56.985Z,1.00
2022-08-12T17:57:32.852Z,1.00
2022-08-12T17:59:13.558Z,1.00
2022-08-12T18:01:01.686Z,1.00
2022-08-12T18:02:35.504Z,1.00
2022-08-12T18:04:22.218Z,1.00
2022-08-12T18:06:01.578Z,1.00
2022-08-12T18:07:39.551Z,1.00
2022-08-12T18:09:14.911Z,1.00
2022-08-12T18:11:11.826Z,1.00
2022-08-12T18:12:51.139Z,1.00
2022-08-12T18:14:28.022Z,1.00
2022-08-12T18:16:06.798Z,1.00
2022-08-12T18:17:47.312Z,1.00
2022-08-12T18:19:19.665Z,1.00
2022-08-12T18:20:52.335Z,1.00
2022-08-12T18:22:31.531Z,1.00
2022-08-12T18:24:05.119Z,1.00
2022-08-12T18:26:17.410Z,1.00
2022-08-12T18:27:50.236Z,1.00
2022-08-12T18:29:43.529Z,1.00
2022-08-12T18:31:19.662Z,1.00
2022-08-12T18:33:04.619Z,1.00
2022-08-12T18:34:40.279Z,1.00
2022-08-12T18:36:22.300Z,1.00
2022-08-12T18:37:57.253Z,10.30
2022-08-12T18:39:49.697Z,46.00
2022-08-12T18:41:33.491Z,86.70
2022-08-12T18:43:06.388Z,99.90
2022-08-12T18:44:48.347Z,99.90
2022-08-12T18:46:32.180Z,99.90
2022-08-12T18:48:05.320Z,99.90
2022-08-12T18:49:39.943Z,99.90
2022-08-12T18:51:21.870Z,99.90
2022-08-12T18:54:06.977Z,99.90
2022-08-12T18:55:08.127Z,99.90
2022-08-12T18:56:43.005Z,99.90
2022-08-12T18:58:20.534Z,99.90
2022-08-12T19:00:00.816Z,99.90
2022-08-12T19:02:17.878Z,99.90
2022-08-12T19:03:39.751Z,99.90
2022-08-12T19:05:17.540Z,1.00
2022-08-12T19:06:55.294Z,1.00
2022-08-12T19:08:30.020Z,1.00
2022-08-12T19:10:03.816Z,1.00
2022-08-12T19:11:55.825Z,1.00
2022-08-12T19:13:49.283Z,1.00
2022-08-12T19:15:24.156Z,1.00
2022-08-12T19:17:04.932Z,1.00
2022-08-12T19:18:40.960Z,1.00
2022-08-12T19:20:18.943Z,1.00
2022-08-12T19:21:57.000Z,1.00
2022-08-12T19:23:35.365Z,1.00
2022-08-12T19:25:24.060Z,1.00
2022-08-12T19:27:21.441Z,1.00
2022-08-12T19:28:56.672Z,1.00
2022-08-12T19:30:52.690Z,1.00
2022-08-12T19:32:31.350Z,1.00
2022-08-12T19:34:26.120Z,1.00
2022-08-12T19:36:24.481Z,1.00
2022-08-12T19:38:04.307Z,1.00
2022-08-12T19:40:10.160Z,6.60
2022-08-12T19:41:42.843Z,99.90
2022-08-12T19:43:59.402Z,1.00
2022-08-12T19:45:42.284Z,1.00
2022-08-12T19:47:23.968Z,1.00
2022-08-12T19:48:58.730Z,1.00
2022-08-12T19:50:37.227Z,99.90
2022-08-12T19:52:11.747Z,99.90
2022-08-12T19:53:57.247Z,1.00
2022-08-12T19:55:35.243Z,1.00
2022-08-12T19:57:11.991Z,1.00
2022-08-12T19:58:46.396Z,1.00
2022-08-12T20:00:22.400Z,1.00
2022-08-12T20:02:02.320Z,99.90
2022-08-12T20:03:38.125Z,99.90
2022-08-12T20:06:03.279Z,99.90
2022-08-12T20:07:23.811Z,99.90
2022-08-12T20:08:57.381Z,1.00
2022-08-12T20:10:36.185Z,1.00
2022-08-12T20:12:18.031Z,99.90
2022-08-12T20:14:01.053Z,99.90
2022-08-12T20:15:44.329Z,1.00
2022-08-12T20:17:23.451Z,99.90
2022-08-12T20:18:57.885Z,99.90
2022-08-12T20:20:30.201Z,99.90
2022-08-12T20:22:14.288Z,1.00
2022-08-12T20:23:59.543Z,1.00
2022-08-12T20:25:52.168Z,1.00
2022-08-12T20:27:29.605Z,1.00
2022-08-12T20:29:19.074Z,1.00
2022-08-12T20:30:59.870Z,1.00
2022-08-12T20:32:48.017Z,35.40
2022-08-12T20:34:22.631Z,99.90
2022-08-12T20:36:13.375Z,99.90
2022-08-12T20:38:06.885Z,99.90
2022-08-12T20:39:53.307Z,99.90
2022-08-12T20:41:33.428Z,1.00
2022-08-12T20:43:06.412Z,1.00
2022-08-12T20:44:41.358Z,1.00
2022-08-12T20:46:13.723Z,99.90
2022-08-12T20:47:54.433Z,99.90
2022-08-12T20:49:41.042Z,99.90
2022-08-12T20:51:19.224Z,1.00
2022-08-12T20:52:51.995Z,1.00
2022-08-12T20:54:32.630Z,99.90
2022-08-12T20:56:30.541Z,1.00
2022-08-12T20:58:09.795Z,1.00
2022-08-12T20:59:47.894Z,99.90
2022-08-12T21:01:28.910Z,99.90
2022-08-12T21:03:21.335Z,99.90
2022-08-12T21:05:19.977Z,1.00
2022-08-12T21:07:04.472Z,1.00
2022-08-12T21:08:43.779Z,1.00
2022-08-12T21:10:16.166Z,1.00
2022-08-12T21:11:53.695Z,1.00
2022-08-12T21:13:27.073Z,1.00
2022-08-12T21:15:23.037Z,1.00
2022-08-12T21:17:05.617Z,1.00
2022-08-12T21:18:38.222Z,1.00
2022-08-12T21:20:15.553Z,1.00
2022-08-12T21:21:50.106Z,99.90
2022-08-12T21:23:23.770Z,1.00
2022-08-12T21:24:57.814Z,1.00
2022-08-12T21:26:31.174Z,1.00
2022-08-12T21:28:06.725Z,1.00
2022-08-12T21:29:55.049Z,1.00
2022-08-12T21:32:47.390Z,1.00
2022-08-12T21:33:23.503Z,23.40
2022-08-12T21:35:04.887Z,93.10
2022-08-12T21:36:48.596Z,99.90
2022-08-12T21:38:21.120Z,99.90
2022-08-12T21:39:56.827Z,99.90
2022-08-12T21:41:36.549Z,99.90
2022-08-12T21:43:09.851Z,99.90
2022-08-12T21:45:48.036Z,99.90
2022-08-12T21:46:35.643Z,99.90
2022-08-12T21:48:09.146Z,99.90
2022-08-12T21:49:54.261Z,99.90
2022-08-12T21:51:49.025Z,99.90
2022-08-12T21:53:20.916Z,99.90
2022-08-12T21:54:56.468Z,99.90
2022-08-12T21:56:34.895Z,99.90
2022-08-12T21:58:16.770Z,99.90
2022-08-12T21:59:49.324Z,99.90
2022-08-12T22:01:26.341Z,99.90
2022-08-12T22:04:03.466Z,99.90
2022-08-12T22:05:38.604Z,99.90
2022-08-12T22:07:18.579Z,99.90
2022-08-12T22:08:55.619Z,99.90
2022-08-12T22:10:29.363Z,99.90
2022-08-12T22:12:29.429Z,99.90
2022-08-12T22:14:08.385Z,99.90
2022-08-12T22:15:41.225Z,99.90
2022-08-12T22:17:49.569Z,99.90
2022-08-12T22:19:23.433Z,99.90
2022-08-12T22:20:56.405Z,99.90
2022-08-12T22:22:33.980Z,99.90
2022-08-12T22:24:09.601Z,99.90
2022-08-12T22:25:58.372Z,99.90
2022-08-12T22:27:50.648Z,99.90
2022-08-12T22:29:41.218Z,99.90
2022-08-12T22:31:15.223Z,99.90
2022-08-12T22:32:50.098Z,99.90
2022-08-12T22:34:29.502Z,99.90
2022-08-12T22:36:04.194Z,99.90
2022-08-12T22:37:36.556Z,99.90